createdAt,value
2023-12-30T00:00:51.682Z,69.34
2023-12-30T00:03:19.311Z,69.71
2023-12-30T00:05:46.868Z,70.19
2023-12-30T00:08:14.452Z,70.35
2023-12-30T00:10:41.953Z,70.60
2023-12-30T00:13:09.610Z,70.57
2023-12-30T00:15:37.186Z,70.58
2023-12-30T00:18:06.257Z,70.68
2023-12-30T00:20:33.786Z,70.90
2023-12-30T00:23:01.980Z,71.00
2023-12-30T00:25:29.676Z,70.85
2023-12-30T00:27:57.372Z,70.88
2023-12-30T00:30:25.264Z,71.32
2023-12-30T00:32:52.913Z,71.51
2023-12-30T00:35:22.607Z,71.77
2023-12-30T00:37:50.363Z,71.80
2023-12-30T00:40:25.854Z,72.25
2023-12-30T00:42:54.724Z,72.42
2023-12-30T00:45:22.708Z,72.18
2023-12-30T00:47:50.325Z,72.30
2023-12-30T00:50:17.966Z,72.32
2023-12-30T00:52:46.846Z,72.60
2023-12-30T00:55:14.651Z,72.97
2023-12-30T00:57:42.256Z,73.18
2023-12-30T01:00:10.603Z,73.36
2023-12-30T01:02:38.188Z,73.69
2023-12-30T01:05:06.653Z,73.40
2023-12-30T01:07:35.561Z,73.33
2023-12-30T01:10:05.283Z,73.04
2023-12-30T01:12:32.867Z,73.19
2023-12-30T01:15:00.420Z,72.94
2023-12-30T01:17:28.005Z,72.66
2023-12-30T01:19:55.719Z,72.68
2023-12-30T01:22:23.343Z,72.60
2023-12-30T01:24:50.920Z,72.28
2023-12-30T01:27:19.793Z,72.28
2023-12-30T01:29:47.494Z,72.25
2023-12-30T01:32:15.050Z,72.13
2023-12-30T01:34:42.648Z,71.98
2023-12-30T01:37:10.234Z,71.99
2023-12-30T01:39:37.795Z,71.83
2023-12-30T01:42:05.698Z,72.13
2023-12-30T01:44:34.833Z,71.96
2023-12-30T01:47:02.462Z,71.88
2023-12-30T01:49:30.440Z,71.78
2023-12-30T01:51:58.312Z,71.77
2023-12-30T01:54:26.072Z,71.76
2023-12-30T01:56:53.840Z,71.91
2023-12-30T01:59:22.428Z,71.66
2023-12-30T02:01:51.413Z,71.89
2023-12-30T02:04:19.181Z,72.16
2023-12-30T02:06:46.755Z,72.35
2023-12-30T02:09:14.890Z,72.64
2023-12-30T02:11:43.528Z,72.56
2023-12-30T02:14:24.261Z,72.47
2023-12-30T02:16:53.105Z,72.43
2023-12-30T02:19:20.791Z,72.41
2023-12-30T02:21:48.604Z,72.16
2023-12-30T02:24:17.581Z,72.11
2023-12-30T02:26:45.165Z,72.32
2023-12-30T02:29:13.037Z,72.27
2023-12-30T02:31:47.156Z,72.64
2023-12-30T02:34:16.180Z,72.45
2023-12-30T02:36:44.470Z,72.46
2023-12-30T02:39:12.153Z,72.87
2023-12-30T02:41:41.201Z,73.15
2023-12-30T02:44:08.977Z,73.52
2023-12-30T02:46:36.606Z,73.01
2023-12-30T02:49:07.424Z,72.90
2023-12-30T02:51:38.357Z,72.88
2023-12-30T02:54:06.266Z,73.54
2023-12-30T02:56:33.875Z,73.19
2023-12-30T02:59:03.689Z,73.61
2023-12-30T03:01:33.078Z,73.74
2023-12-30T03:04:02.655Z,73.81
2023-12-30T03:06:31.160Z,74.08
2023-12-30T03:08:58.709Z,74.40
2023-12-30T03:11:27.107Z,74.54
2023-12-30T03:13:56.766Z,74.69
2023-12-30T03:16:26.311Z,74.96
2023-12-30T03:18:54.223Z,74.96
2023-12-30T03:21:22.057Z,75.03
2023-12-30T03:23:49.837Z,74.98
2023-12-30T03:26:17.636Z,75.21
2023-12-30T03:28:45.194Z,75.32
2023-12-30T03:31:22.149Z,75.19
2023-12-30T03:33:51.302Z,74.82
2023-12-30T03:36:18.988Z,74.96
2023-12-30T03:38:47.968Z,74.67
2023-12-30T03:41:15.626Z,75.44
2023-12-30T03:43:43.161Z,75.34
2023-12-30T03:46:10.806Z,75.06
2023-12-30T03:48:37.926Z,74.82
2023-12-30T03:51:07.705Z,74.58
2023-12-30T03:53:35.762Z,74.52
2023-12-30T03:56:03.640Z,74.56
2023-12-30T03:58:31.389Z,74.43
2023-12-30T04:00:59.119Z,74.32
2023-12-30T04:03:26.717Z,73.74
2023-12-30T04:05:54.415Z,74.23
2023-12-30T04:08:23.382Z,73.72
2023-12-30T04:10:50.968Z,73.88
2023-12-30T04:13:18.513Z,73.82
2023-12-30T04:15:46.098Z,74.23
2023-12-30T04:18:14.712Z,74.38
2023-12-30T04:20:42.341Z,74.96
2023-12-30T04:23:09.882Z,75.24
2023-12-30T04:25:39.587Z,76.07
2023-12-30T04:28:07.942Z,75.88
2023-12-30T04:30:35.720Z,76.29
2023-12-30T04:33:04.474Z,76.06
2023-12-30T04:35:36.154Z,76.26
2023-12-30T04:38:04.123Z,76.39
2023-12-30T04:40:31.801Z,75.74
2023-12-30T04:43:00.874Z,76.16
2023-12-30T04:45:28.534Z,76.14
2023-12-30T04:47:56.199Z,76.41
2023-12-30T04:50:24.538Z,76.31
2023-12-30T04:52:52.887Z,76.35
2023-12-30T04:55:20.542Z,76.80
2023-12-30T04:57:49.303Z,76.84
2023-12-30T05:00:21.792Z,76.86
2023-12-30T05:02:51.119Z,76.90
2023-12-30T05:05:18.732Z,77.16
2023-12-30T05:07:47.588Z,77.43
2023-12-30T05:10:15.302Z,77.62
2023-12-30T05:12:43.238Z,77.70
2023-12-30T05:15:13.986Z,77.32
2023-12-30T05:17:43.116Z,77.36
2023-12-30T05:20:13.253Z,77.08
2023-12-30T05:22:41.912Z,77.37
2023-12-30T05:25:10.436Z,77.08
2023-12-30T05:27:38.606Z,76.92
2023-12-30T05:30:08.495Z,76.61
2023-12-30T05:32:36.566Z,76.81
2023-12-30T05:35:06.424Z,76.54
2023-12-30T05:37:34.059Z,76.68
2023-12-30T05:40:01.739Z,77.09
2023-12-30T05:42:29.421Z,76.85
2023-12-30T05:44:56.939Z,77.08
2023-12-30T05:47:24.967Z,77.02
2023-12-30T05:49:52.618Z,76.83
2023-12-30T05:52:21.657Z,76.59
2023-12-30T05:54:49.236Z,76.59
2023-12-30T05:57:17.005Z,77.07
2023-12-30T05:59:44.567Z,77.09
2023-12-30T06:02:12.465Z,76.93
2023-12-30T06:04:41.265Z,77.00
2023-12-30T06:07:09.061Z,77.04
2023-12-30T06:09:38.498Z,77.20
2023-12-30T06:12:06.657Z,77.09
2023-12-30T06:14:34.926Z,76.97
2023-12-30T06:17:02.572Z,76.78
2023-12-30T06:19:30.291Z,77.04
2023-12-30T06:21:57.896Z,76.77
2023-12-30T06:24:27.926Z,76.40
2023-12-30T06:26:56.915Z,75.91
2023-12-30T06:29:28.118Z,76.27
2023-12-30T06:31:56.877Z,75.78
2023-12-30T06:34:24.598Z,75.96
2023-12-30T06:36:52.243Z,75.81
2023-12-30T06:39:21.298Z,75.39
2023-12-30T06:41:48.781Z,75.59
2023-12-30T06:44:17.720Z,75.60
2023-12-30T06:46:45.280Z,75.54
2023-12-30T06:49:13.149Z,75.38
2023-12-30T06:51:40.722Z,75.20
2023-12-30T06:54:08.612Z,75.62
2023-12-30T06:56:37.444Z,75.09
2023-12-30T06:59:05.022Z,74.95
2023-12-30T07:01:38.550Z,74.96
2023-12-30T07:04:06.225Z,74.72
2023-12-30T07:06:33.839Z,74.76
2023-12-30T07:09:01.445Z,74.71
2023-12-30T07:11:29.354Z,74.82
2023-12-30T07:13:56.929Z,75.08
2023-12-30T07:16:24.792Z,74.69
2023-12-30T07:18:53.745Z,74.52
2023-12-30T07:21:21.378Z,74.54
2023-12-30T07:23:48.985Z,74.51
2023-12-30T07:26:16.590Z,74.69
2023-12-30T07:28:44.326Z,74.54
2023-12-30T07:31:12.013Z,74.37
2023-12-30T07:33:39.710Z,73.48
2023-12-30T07:36:09.282Z,73.39
2023-12-30T07:38:36.803Z,73.69
2023-12-30T07:41:04.419Z,74.32
2023-12-30T07:43:32.026Z,73.65
2023-12-30T07:45:59.698Z,73.19
2023-12-30T07:48:30.341Z,73.25
2023-12-30T07:50:57.919Z,73.26
2023-12-30T07:53:26.881Z,73.49
2023-12-30T07:55:54.414Z,73.43
2023-12-30T07:58:22.110Z,73.51
2023-12-30T08:00:49.644Z,73.38
2023-12-30T08:03:17.281Z,73.43
2023-12-30T08:05:45.234Z,73.71
2023-12-30T08:08:13.513Z,73.86
2023-12-30T08:10:42.436Z,74.12
2023-12-30T08:13:10.123Z,74.66
2023-12-30T08:15:37.719Z,74.89
2023-12-30T08:18:20.795Z,75.44
2023-12-30T08:21:41.327Z,75.53
2023-12-30T08:26:38.817Z,76.01
2023-12-30T08:28:12.096Z,76.17
2023-12-30T08:31:01.364Z,76.19
2023-12-30T08:33:33.570Z,76.50
2023-12-30T08:36:01.166Z,77.40
2023-12-30T08:38:32.767Z,77.38
2023-12-30T08:41:00.429Z,77.43
2023-12-30T08:43:29.415Z,77.30
2023-12-30T08:45:57.145Z,78.08
2023-12-30T08:48:24.814Z,77.78
2023-12-30T08:50:52.460Z,78.21
2023-12-30T08:53:25.700Z,77.90
2023-12-30T08:55:53.842Z,77.86
2023-12-30T08:58:22.378Z,78.09
2023-12-30T09:00:51.508Z,78.89
2023-12-30T09:03:20.246Z,79.25
2023-12-30T09:05:48.296Z,79.52
2023-12-30T09:08:15.899Z,79.40
2023-12-30T09:10:43.748Z,79.28
2023-12-30T09:13:11.839Z,79.79
2023-12-30T09:15:40.106Z,79.77
2023-12-30T09:18:11.997Z,79.85
2023-12-30T09:20:41.542Z,79.94
2023-12-30T09:23:09.086Z,80.31
2023-12-30T09:25:36.841Z,79.92
2023-12-30T09:28:04.958Z,79.62
2023-12-30T09:30:32.607Z,79.85
2023-12-30T09:33:00.341Z,79.63
2023-12-30T09:35:29.904Z,79.77
2023-12-30T09:37:57.511Z,79.41
2023-12-30T09:40:25.109Z,79.27
2023-12-30T09:42:52.981Z,78.81
2023-12-30T09:45:21.864Z,77.72
2023-12-30T09:47:49.784Z,76.79
2023-12-30T09:50:17.635Z,76.52
2023-12-30T09:52:46.549Z,76.27
2023-12-30T09:55:14.320Z,75.43
2023-12-30T09:57:42.078Z,75.34
2023-12-30T10:00:10.564Z,75.07
2023-12-30T10:02:39.391Z,74.31
2023-12-30T10:05:08.573Z,73.58
2023-12-30T10:07:36.257Z,73.09
2023-12-30T10:10:06.040Z,72.14
2023-12-30T10:12:33.665Z,72.60
2023-12-30T10:15:01.465Z,72.41
2023-12-30T10:17:30.110Z,72.13
2023-12-30T10:19:58.096Z,72.18
2023-12-30T10:22:25.921Z,71.71
2023-12-30T10:24:53.481Z,71.72
2023-12-30T10:27:23.172Z,71.91
2023-12-30T10:30:00.257Z,71.01
2023-12-30T10:32:28.829Z,71.14
2023-12-30T10:34:56.902Z,71.22
2023-12-30T10:37:25.494Z,71.04
2023-12-30T10:39:55.470Z,70.48
2023-12-30T10:42:24.465Z,70.60
2023-12-30T10:44:52.177Z,69.86
2023-12-30T10:47:23.439Z,69.53
2023-12-30T10:49:53.318Z,69.42
2023-12-30T10:52:24.753Z,69.91
2023-12-30T10:54:56.967Z,69.35
2023-12-30T10:57:28.956Z,68.06
2023-12-30T10:59:59.025Z,67.98
2023-12-30T11:02:26.934Z,66.98
2023-12-30T11:04:56.270Z,67.35
2023-12-30T11:07:27.092Z,68.01
2023-12-30T11:09:54.856Z,68.48
2023-12-30T11:12:22.405Z,68.49
2023-12-30T11:14:51.315Z,68.96
2023-12-30T11:17:36.784Z,68.73
2023-12-30T11:20:24.223Z,68.66
2023-12-30T11:22:52.885Z,68.59
2023-12-30T11:25:20.812Z,68.87
2023-12-30T11:27:49.817Z,68.85
2023-12-30T11:30:19.278Z,68.73
2023-12-30T11:32:47.595Z,68.95
2023-12-30T11:35:15.632Z,68.91
2023-12-30T11:37:46.013Z,69.06
2023-12-30T11:40:16.060Z,68.87
2023-12-30T11:42:48.252Z,68.94
2023-12-30T11:45:16.569Z,68.92
2023-12-30T11:47:48.099Z,68.59
2023-12-30T11:50:15.802Z,68.97
2023-12-30T11:52:47.677Z,68.96
2023-12-30T11:55:15.448Z,68.86
2023-12-30T11:57:43.129Z,68.52
2023-12-30T12:00:12.284Z,68.75
2023-12-30T12:02:43.161Z,68.72
2023-12-30T12:05:12.197Z,68.42
2023-12-30T12:07:39.949Z,67.87
2023-12-30T12:10:08.238Z,68.69
2023-12-30T12:12:37.652Z,68.29
2023-12-30T12:15:06.311Z,68.18
2023-12-30T12:17:34.021Z,68.17
2023-12-30T12:20:02.656Z,67.79
2023-12-30T12:22:31.667Z,68.31
2023-12-30T12:25:02.772Z,68.61
2023-12-30T12:27:32.095Z,68.96
2023-12-30T12:30:00.746Z,69.16
2023-12-30T12:32:30.219Z,69.50
2023-12-30T12:34:58.967Z,69.78
2023-12-30T12:37:27.985Z,69.78
2023-12-30T12:39:57.042Z,70.08
2023-12-30T12:42:30.470Z,69.76
2023-12-30T12:44:59.252Z,69.63
2023-12-30T12:47:27.026Z,70.08
2023-12-30T12:49:54.881Z,70.33
2023-12-30T12:52:22.637Z,70.38
2023-12-30T12:54:50.310Z,70.14
2023-12-30T12:57:19.185Z,70.17
2023-12-30T12:59:46.740Z,70.22
2023-12-30T13:02:15.336Z,70.15
2023-12-30T13:04:43.504Z,70.05
2023-12-30T13:07:12.752Z,70.27
2023-12-30T13:09:54.082Z,70.39
2023-12-30T13:12:23.322Z,70.15
2023-12-30T13:14:52.443Z,69.79
2023-12-30T13:17:20.197Z,69.99
2023-12-30T13:19:48.122Z,70.15
2023-12-30T13:22:15.744Z,70.31
2023-12-30T13:24:45.665Z,70.46
2023-12-30T13:27:13.422Z,70.50
2023-12-30T13:29:44.685Z,70.20
2023-12-30T13:32:13.861Z,70.06
2023-12-30T13:34:41.611Z,69.99
2023-12-30T13:37:10.125Z,70.02
2023-12-30T13:39:41.210Z,69.98
2023-12-30T13:42:10.671Z,69.83
2023-12-30T13:44:43.559Z,69.87
2023-12-30T13:50:15.301Z,69.60
2023-12-30T13:52:42.561Z,69.71
2023-12-30T13:55:14.036Z,69.30
2023-12-30T13:57:42.873Z,69.81
2023-12-30T14:00:11.764Z,70.06
2023-12-30T14:02:40.152Z,70.19
2023-12-30T14:05:16.956Z,70.89
2023-12-30T14:07:45.517Z,71.21
2023-12-30T14:10:19.360Z,71.06
2023-12-30T14:12:48.527Z,71.24
2023-12-30T14:15:19.062Z,71.62
2023-12-30T14:17:46.953Z,71.38
2023-12-30T14:20:15.928Z,71.72
2023-12-30T14:22:43.637Z,71.79
2023-12-30T14:25:12.779Z,72.00
2023-12-30T14:27:41.584Z,72.07
2023-12-30T14:30:12.961Z,71.85
2023-12-30T14:32:42.868Z,72.08
2023-12-30T14:35:11.485Z,71.97
2023-12-30T14:37:40.894Z,71.98
2023-12-30T14:40:09.918Z,72.23
2023-12-30T14:42:37.567Z,72.21
2023-12-30T14:45:08.037Z,72.19
2023-12-30T14:47:37.428Z,72.26
2023-12-30T14:50:08.336Z,71.87
2023-12-30T14:52:37.562Z,71.70
2023-12-30T14:55:08.992Z,72.14
2023-12-30T14:57:36.916Z,71.99
2023-12-30T15:00:07.895Z,71.91
2023-12-30T15:02:35.815Z,72.20
2023-12-30T15:05:03.971Z,71.59
2023-12-30T15:07:31.701Z,71.66
2023-12-30T15:09:59.334Z,71.69
2023-12-30T15:12:28.197Z,71.37
2023-12-30T15:14:55.868Z,71.31
2023-12-30T15:17:23.454Z,71.24
2023-12-30T15:19:52.054Z,71.08
2023-12-30T15:22:20.921Z,70.88
2023-12-30T15:24:48.522Z,71.04
2023-12-30T15:27:16.135Z,70.88
2023-12-30T15:29:44.971Z,71.05
2023-12-30T15:32:13.022Z,71.13
2023-12-30T15:34:40.705Z,71.17
2023-12-30T15:37:08.378Z,71.15
2023-12-30T15:39:36.084Z,71.33
2023-12-30T15:42:03.902Z,71.22
2023-12-30T15:44:33.688Z,71.39
2023-12-30T15:47:02.706Z,71.51
2023-12-30T15:49:30.381Z,71.66
2023-12-30T15:51:57.973Z,72.01
2023-12-30T15:54:25.494Z,72.25
2023-12-30T15:56:53.360Z,71.80
2023-12-30T15:59:20.892Z,71.46
2023-12-30T16:01:48.422Z,71.40
2023-12-30T16:04:17.391Z,71.89
2023-12-30T16:06:45.701Z,72.28
2023-12-30T16:09:13.528Z,72.14
2023-12-30T16:11:41.317Z,72.18
2023-12-30T16:14:11.011Z,72.92
2023-12-30T16:16:42.341Z,72.70
2023-12-30T16:19:10.544Z,72.77
2023-12-30T16:21:39.807Z,73.17
2023-12-30T16:24:08.118Z,73.39
2023-12-30T16:26:35.956Z,73.81
2023-12-30T16:29:04.097Z,74.15
2023-12-30T16:31:32.063Z,74.37
2023-12-30T16:34:00.001Z,74.89
2023-12-30T16:36:27.805Z,75.02
2023-12-30T16:38:58.492Z,75.15
2023-12-30T16:41:26.067Z,75.27
2023-12-30T16:43:53.734Z,75.18
2023-12-30T16:46:21.870Z,75.42
2023-12-30T16:48:49.581Z,75.50
2023-12-30T16:51:17.500Z,75.73
2023-12-30T16:53:45.050Z,75.36
2023-12-30T16:56:16.526Z,75.59
2023-12-30T16:58:44.228Z,75.68
2023-12-30T17:01:12.016Z,75.72
2023-12-30T17:03:39.565Z,75.65
2023-12-30T17:06:07.193Z,75.33
2023-12-30T17:08:34.759Z,75.64
2023-12-30T17:11:02.350Z,75.86
2023-12-30T17:13:35.512Z,75.89
2023-12-30T17:16:10.761Z,75.91
2023-12-30T17:18:38.429Z,75.51
2023-12-30T17:21:06.684Z,75.91
2023-12-30T17:23:34.276Z,76.12
2023-12-30T17:26:01.838Z,75.96
2023-12-30T17:28:30.755Z,75.83
2023-12-30T17:30:58.397Z,76.18
2023-12-30T17:33:26.362Z,75.97
2023-12-30T17:35:54.665Z,76.30
2023-12-30T17:38:22.266Z,76.27
2023-12-30T17:40:50.022Z,76.26
2023-12-30T17:43:17.658Z,76.66
2023-12-30T17:45:46.589Z,76.54
2023-12-30T17:48:14.517Z,76.11
2023-12-30T17:50:44.021Z,76.14
2023-12-30T17:53:12.438Z,76.21
2023-12-30T17:55:41.912Z,75.91
2023-12-30T17:58:09.729Z,76.10
2023-12-30T18:00:37.633Z,75.82
2023-12-30T18:03:07.380Z,76.16
2023-12-30T18:05:35.245Z,75.67
2023-12-30T18:08:02.902Z,76.00
2023-12-30T18:10:30.546Z,76.09
2023-12-30T18:12:58.102Z,76.75
2023-12-30T18:15:26.488Z,76.67
2023-12-30T18:17:54.162Z,77.10
2023-12-30T18:20:23.502Z,76.49
2023-12-30T18:22:51.050Z,76.63
2023-12-30T18:25:20.555Z,77.66
2023-12-30T18:27:48.240Z,77.58
2023-12-30T18:30:16.598Z,77.95
2023-12-30T18:32:44.338Z,78.24
2023-12-30T18:35:12.121Z,78.50
2023-12-30T18:37:42.698Z,78.60
2023-12-30T18:40:11.743Z,78.43
2023-12-30T18:42:39.507Z,78.95
2023-12-30T18:45:07.810Z,79.07
2023-12-30T18:47:35.345Z,78.80
2023-12-30T18:50:02.946Z,79.11
2023-12-30T18:52:30.547Z,79.26
2023-12-30T18:54:59.444Z,78.66
2023-12-30T18:57:26.969Z,79.22
2023-12-30T18:59:55.710Z,79.38
2023-12-30T19:02:23.458Z,79.31
2023-12-30T19:04:51.306Z,79.51
2023-12-30T19:07:19.014Z,79.62
2023-12-30T19:09:46.571Z,79.57
2023-12-30T19:12:15.613Z,79.42
2023-12-30T19:14:43.188Z,79.35
2023-12-30T19:17:10.846Z,79.83
2023-12-30T19:19:38.751Z,79.71
2023-12-30T19:22:08.405Z,79.89
2023-12-30T19:24:38.138Z,79.83
2023-12-30T19:27:06.968Z,79.58
2023-12-30T19:29:38.271Z,79.58
2023-12-30T19:32:06.191Z,79.88
2023-12-30T19:34:33.797Z,80.15
2023-12-30T19:37:02.042Z,80.65
2023-12-30T19:39:29.852Z,81.01
2023-12-30T19:41:57.399Z,80.88
2023-12-30T19:44:25.363Z,80.78
2023-12-30T19:46:54.263Z,81.10
2023-12-30T19:49:21.885Z,81.00
2023-12-30T19:51:49.522Z,81.53
2023-12-30T19:54:17.052Z,80.87
2023-12-30T19:56:45.687Z,80.94
2023-12-30T19:59:13.349Z,80.47
2023-12-30T20:01:41.959Z,81.14
2023-12-30T20:04:11.134Z,81.26
2023-12-30T20:06:40.812Z,81.63
2023-12-30T20:09:08.344Z,80.99
2023-12-30T20:11:35.896Z,81.90
2023-12-30T20:14:03.453Z,82.21
2023-12-30T20:16:31.395Z,81.97
2023-12-30T20:18:59.009Z,81.97
2023-12-30T20:21:27.960Z,82.41
2023-12-30T20:23:55.467Z,82.30
2023-12-30T20:26:23.034Z,82.12
2023-12-30T20:28:51.339Z,81.97
2023-12-30T20:31:19.214Z,81.87
2023-12-30T20:33:46.872Z,81.75
2023-12-30T20:36:20.728Z,81.97
2023-12-30T20:38:49.651Z,81.92
2023-12-30T20:41:17.910Z,81.86
2023-12-30T20:43:45.579Z,82.23
2023-12-30T20:46:13.258Z,82.06
2023-12-30T20:48:43.352Z,81.83
2023-12-30T20:51:10.974Z,82.14
2023-12-30T20:53:38.504Z,82.11
2023-12-30T20:56:07.677Z,81.57
2023-12-30T20:58:35.290Z,81.55
2023-12-30T21:01:02.902Z,81.70
2023-12-30T21:03:32.140Z,81.62
2023-12-30T21:05:59.761Z,81.57
2023-12-30T21:08:27.353Z,81.25
2023-12-30T21:10:54.925Z,81.24
2023-12-30T21:13:23.789Z,81.85
2023-12-30T21:15:51.368Z,81.73
2023-12-30T21:18:19.149Z,81.58
2023-12-30T21:20:47.980Z,80.83
2023-12-30T21:23:15.712Z,81.18
2023-12-30T21:25:49.101Z,81.19
2023-12-30T21:28:16.846Z,81.83
2023-12-30T21:30:45.858Z,81.44
2023-12-30T21:33:13.534Z,81.67
2023-12-30T21:35:41.288Z,81.42
2023-12-30T21:38:08.870Z,81.41
2023-12-30T21:40:36.736Z,81.07
2023-12-30T21:43:04.763Z,81.19
2023-12-30T21:45:32.626Z,81.01
2023-12-30T21:48:01.701Z,80.92
2023-12-30T21:50:29.440Z,81.04
2023-12-30T21:52:57.138Z,81.06
2023-12-30T21:55:25.004Z,81.09
2023-12-30T21:57:52.689Z,80.97
2023-12-30T22:00:20.365Z,80.82
2023-12-30T22:02:48.349Z,81.06
2023-12-30T22:05:20.336Z,80.93
2023-12-30T22:07:47.961Z,81.09
2023-12-30T22:10:18.319Z,81.29
2023-12-30T22:12:45.879Z,81.55
2023-12-30T22:15:13.648Z,85.22
2023-12-30T22:17:41.277Z,82.07
2023-12-30T22:20:09.589Z,81.83
2023-12-30T22:22:38.461Z,81.85
2023-12-30T22:25:06.401Z,81.77
2023-12-30T22:27:34.025Z,82.30
2023-12-30T22:30:02.446Z,82.52
2023-12-30T22:32:30.871Z,82.49
2023-12-30T22:34:58.929Z,82.71
2023-12-30T22:37:26.692Z,82.88
2023-12-30T22:39:55.611Z,83.63
2023-12-30T22:42:23.109Z,84.47
2023-12-30T22:44:50.619Z,83.88
2023-12-30T22:47:18.293Z,83.64
2023-12-30T22:49:45.830Z,83.81
2023-12-30T22:52:13.771Z,84.00
2023-12-30T22:54:42.181Z,83.79
2023-12-30T22:57:11.044Z,84.15
2023-12-30T22:59:38.715Z,83.68
2023-12-30T23:02:06.624Z,84.28
2023-12-30T23:04:34.167Z,84.14
2023-12-30T23:07:00.819Z,84.97
2023-12-30T23:09:28.341Z,84.70
2023-12-30T23:11:55.880Z,84.77
2023-12-30T23:14:26.043Z,84.75
2023-12-30T23:16:53.852Z,85.20
2023-12-30T23:19:21.500Z,85.22
2023-12-30T23:21:49.248Z,84.74
2023-12-30T23:24:16.949Z,84.95
2023-12-30T23:26:44.468Z,84.82
2023-12-30T23:29:11.992Z,85.27
2023-12-30T23:31:42.492Z,85.74
2023-12-30T23:34:10.442Z,85.58
2023-12-30T23:36:40.500Z,84.59
2023-12-30T23:39:08.584Z,83.63
2023-12-30T23:41:36.090Z,83.78
2023-12-30T23:44:03.661Z,83.48
2023-12-30T23:46:31.291Z,83.52
2023-12-30T23:49:00.403Z,83.63
2023-12-30T23:51:27.958Z,83.67
2023-12-30T23:53:55.546Z,84.59
2023-12-30T23:56:23.184Z,84.11
2023-12-30T23:58:50.777Z,84.07
